createdAt,value
2024-02-08T00:00:00.499Z,50.25
2024-02-08T00:02:27.459Z,48.65
2024-02-08T00:04:54.313Z,39.90
2024-02-08T00:07:21.136Z,48.97
2024-02-08T00:09:47.918Z,42.60
2024-02-08T00:12:14.726Z,45.20
2024-02-08T00:14:41.505Z,45.45
2024-02-08T00:17:08.294Z,41.38
2024-02-08T00:19:35.157Z,44.28
2024-02-08T00:22:02.042Z,45.47
2024-02-08T00:24:28.821Z,41.72
2024-02-08T00:26:55.569Z,53.25
2024-02-08T00:29:22.365Z,46.92
2024-02-08T00:31:49.148Z,45.53
2024-02-08T00:34:16.063Z,47.45
2024-02-08T00:36:42.896Z,46.40
2024-02-08T00:39:10.393Z,46.42
2024-02-08T00:41:37.387Z,46.03
2024-02-08T00:44:04.279Z,42.78
2024-02-08T00:46:31.133Z,46.15
2024-02-08T00:48:57.974Z,43.25
2024-02-08T00:51:24.777Z,43.63
2024-02-08T00:53:51.517Z,43.58
2024-02-08T00:56:18.318Z,47.03
2024-02-08T00:58:45.248Z,48.20
2024-02-08T01:01:12.072Z,52.10
2024-02-08T01:03:38.944Z,53.92
2024-02-08T01:06:06.199Z,53.17
2024-02-08T01:08:33.039Z,42.03
2024-02-08T01:10:59.928Z,46.90
2024-02-08T01:13:26.891Z,40.25
2024-02-08T01:15:54.118Z,44.92
2024-02-08T01:18:23.996Z,47.53
2024-02-08T01:20:50.860Z,43.40
2024-02-08T01:23:18.524Z,47.70
2024-02-08T01:25:46.228Z,47.67
2024-02-08T01:28:13.010Z,55.55
2024-02-08T01:30:39.946Z,47.92
2024-02-08T01:33:07.623Z,42.20
2024-02-08T01:35:34.789Z,52.15
2024-02-08T01:38:01.695Z,44.08
2024-02-08T01:40:28.844Z,40.22
2024-02-08T01:42:56.406Z,42.92
2024-02-08T01:45:33.896Z,50.28
2024-02-08T01:48:08.339Z,39.42
2024-02-08T01:50:38.336Z,38.10
2024-02-08T01:53:07.511Z,37.63
2024-02-08T01:55:35.958Z,40.80
2024-02-08T01:58:07.957Z,36.70
2024-02-08T02:03:21.514Z,36.45
2024-02-08T02:05:48.581Z,31.23
2024-02-08T02:08:21.300Z,30.00
2024-02-08T02:11:10.857Z,32.47
2024-02-08T02:13:39.693Z,25.83
2024-02-08T02:16:07.147Z,37.08
2024-02-08T02:18:34.021Z,34.58
2024-02-08T02:21:00.869Z,33.30
2024-02-08T02:23:27.721Z,34.75
2024-02-08T02:25:55.274Z,33.45
2024-02-08T02:28:22.629Z,34.13
2024-02-08T02:30:49.790Z,32.92
2024-02-08T02:33:17.346Z,38.10
2024-02-08T02:35:44.561Z,38.15
2024-02-08T02:38:11.429Z,33.45
2024-02-08T02:40:38.438Z,31.63
2024-02-08T02:43:05.331Z,27.80
2024-02-08T02:45:32.151Z,27.60
2024-02-08T02:47:59.040Z,26.75
2024-02-08T02:50:26.121Z,32.60
2024-02-08T02:52:54.346Z,28.08
2024-02-08T02:55:21.532Z,21.92
2024-02-08T02:57:48.385Z,25.63
2024-02-08T03:00:15.830Z,21.05
2024-02-08T03:02:42.709Z,20.73
2024-02-08T03:05:09.625Z,25.85
2024-02-08T03:07:36.658Z,21.33
2024-02-08T03:10:03.503Z,18.42
2024-02-08T03:12:30.307Z,28.42
2024-02-08T03:15:00.523Z,26.80
2024-02-08T03:17:27.408Z,24.42
2024-02-08T03:19:54.373Z,24.85
2024-02-08T03:22:21.225Z,21.40
2024-02-08T03:24:48.051Z,18.98
2024-02-08T03:27:14.857Z,25.25
2024-02-08T03:29:41.914Z,22.63
2024-02-08T03:32:09.544Z,24.42
2024-02-08T03:34:36.927Z,18.25
2024-02-08T03:37:04.010Z,23.48
2024-02-08T03:39:30.768Z,19.80
2024-02-08T03:41:59.599Z,21.00
2024-02-08T03:44:27.341Z,19.17
2024-02-08T03:46:54.200Z,20.70
2024-02-08T03:49:21.623Z,14.68
2024-02-08T03:51:49.293Z,18.52
2024-02-08T03:54:17.264Z,24.63
2024-02-08T03:56:45.447Z,15.68
2024-02-08T03:59:12.290Z,15.82
2024-02-08T04:01:41.882Z,18.60
2024-02-08T04:04:08.808Z,17.88
2024-02-08T04:06:35.721Z,12.35
2024-02-08T04:09:02.543Z,14.32
2024-02-08T04:11:29.301Z,14.15
2024-02-08T04:13:56.084Z,13.85
2024-02-08T04:16:22.976Z,14.15
2024-02-08T04:18:49.859Z,17.63
2024-02-08T04:21:16.758Z,21.65
2024-02-08T04:23:43.641Z,11.45
2024-02-08T04:26:10.481Z,14.10
2024-02-08T04:28:37.347Z,24.77
2024-02-08T04:31:10.082Z,14.80
2024-02-08T04:33:37.049Z,12.85
2024-02-08T04:36:04.244Z,13.02
2024-02-08T04:38:31.075Z,14.30
2024-02-08T04:40:58.002Z,16.85
2024-02-08T04:43:24.947Z,14.20
2024-02-08T04:45:51.798Z,12.73
2024-02-08T04:48:18.638Z,12.80
2024-02-08T04:50:45.551Z,17.98
2024-02-08T04:53:12.425Z,13.65
2024-02-08T04:55:39.268Z,16.92
2024-02-08T04:58:28.275Z,15.32
2024-02-08T05:00:52.814Z,12.70
2024-02-08T05:03:19.581Z,12.45
2024-02-08T05:05:46.410Z,16.08
2024-02-08T05:08:13.359Z,14.75
2024-02-08T05:10:40.195Z,17.85
2024-02-08T05:13:07.140Z,13.25
2024-02-08T05:15:33.997Z,13.43
2024-02-08T05:18:00.837Z,10.05
2024-02-08T05:20:27.982Z,11.85
2024-02-08T05:22:54.749Z,12.98
2024-02-08T05:25:23.623Z,14.73
2024-02-08T05:27:52.350Z,12.30
2024-02-08T05:30:19.257Z,13.88
2024-02-08T05:32:46.606Z,11.43
2024-02-08T05:35:13.526Z,9.15
2024-02-08T05:37:40.924Z,13.85
2024-02-08T05:40:08.316Z,14.23
2024-02-08T05:42:35.250Z,15.32
2024-02-08T05:45:02.019Z,16.55
2024-02-08T05:47:28.862Z,12.93
2024-02-08T05:49:55.781Z,17.20
2024-02-08T05:52:22.659Z,13.48
2024-02-08T05:54:49.485Z,12.20
2024-02-08T05:57:19.376Z,14.70
2024-02-08T05:59:46.941Z,13.57
2024-02-08T06:02:14.493Z,15.32
2024-02-08T06:04:42.149Z,16.60
2024-02-08T06:07:09.109Z,19.63
2024-02-08T06:09:37.874Z,19.77
2024-02-08T06:12:08.380Z,16.02
2024-02-08T06:14:37.382Z,15.77
2024-02-08T06:17:04.229Z,18.05
2024-02-08T06:19:31.078Z,22.52
2024-02-08T06:21:57.913Z,18.30
2024-02-08T06:24:24.786Z,23.85
2024-02-08T06:26:55.503Z,19.00
2024-02-08T06:29:22.897Z,17.75
2024-02-08T06:31:49.763Z,19.92
2024-02-08T06:34:16.625Z,22.38
2024-02-08T06:36:43.586Z,18.92
2024-02-08T06:39:10.491Z,20.15
2024-02-08T06:41:37.328Z,20.50
2024-02-08T06:44:04.177Z,16.13
2024-02-08T06:46:30.986Z,19.13
2024-02-08T06:48:57.836Z,20.65
2024-02-08T06:51:24.651Z,17.30
2024-02-08T06:53:52.584Z,15.10
2024-02-08T06:56:19.370Z,19.17
2024-02-08T06:58:46.121Z,16.80
2024-02-08T07:01:13.074Z,18.40
2024-02-08T07:03:40.648Z,18.95
2024-02-08T07:06:07.512Z,28.80
2024-02-08T07:08:34.261Z,25.35
2024-02-08T07:11:01.078Z,22.50
2024-02-08T07:13:27.900Z,18.05
2024-02-08T07:15:54.733Z,24.67
2024-02-08T07:18:21.656Z,21.13
2024-02-08T07:20:48.466Z,21.73
2024-02-08T07:23:15.246Z,22.55
2024-02-08T07:25:42.109Z,23.02
2024-02-08T07:28:09.006Z,23.50
2024-02-08T07:30:35.887Z,23.83
2024-02-08T07:33:02.779Z,19.17
2024-02-08T07:35:29.631Z,23.83
2024-02-08T07:37:56.439Z,19.25
2024-02-08T07:40:23.380Z,27.13
2024-02-08T07:42:56.576Z,20.30
2024-02-08T07:45:23.355Z,15.82
2024-02-08T07:47:50.196Z,20.52
2024-02-08T07:50:17.158Z,27.52
2024-02-08T07:52:43.980Z,24.25
2024-02-08T07:55:10.881Z,20.63
2024-02-08T07:57:37.863Z,22.98
2024-02-08T08:00:05.184Z,20.08
2024-02-08T08:02:31.992Z,25.67
2024-02-08T08:04:58.959Z,20.20
2024-02-08T08:07:26.157Z,18.08
2024-02-08T08:09:54.314Z,24.90
2024-02-08T08:12:23.627Z,19.05
2024-02-08T08:14:51.745Z,19.17
2024-02-08T08:17:18.888Z,18.38
2024-02-08T08:19:46.564Z,25.83
2024-02-08T08:22:14.447Z,28.83
2024-02-08T08:24:41.252Z,22.45
2024-02-08T08:27:08.560Z,21.65
2024-02-08T08:29:38.889Z,23.80
2024-02-08T08:32:05.859Z,20.75
2024-02-08T08:34:32.817Z,20.77
2024-02-08T08:36:59.908Z,15.35
2024-02-08T08:39:27.458Z,19.20
2024-02-08T08:41:54.233Z,14.98
2024-02-08T08:44:21.025Z,20.75
2024-02-08T08:46:47.804Z,15.02
2024-02-08T08:49:16.458Z,17.23
2024-02-08T08:51:44.136Z,15.32
2024-02-08T08:54:11.697Z,17.48
2024-02-08T08:56:38.487Z,17.67
2024-02-08T08:59:05.297Z,13.88
2024-02-08T09:01:32.163Z,16.15
2024-02-08T09:03:59.342Z,24.83
2024-02-08T09:06:26.999Z,14.43
2024-02-08T09:08:54.121Z,17.88
2024-02-08T09:11:20.879Z,19.67
2024-02-08T09:13:49.355Z,25.33
2024-02-08T09:16:18.131Z,24.52
2024-02-08T09:18:45.293Z,22.77
2024-02-08T09:21:12.191Z,14.27
2024-02-08T09:23:39.048Z,18.52
2024-02-08T09:26:05.880Z,16.80
2024-02-08T09:28:33.639Z,16.17
2024-02-08T09:31:01.992Z,15.43
2024-02-08T09:33:28.807Z,22.45
2024-02-08T09:35:55.602Z,17.13
2024-02-08T09:38:22.404Z,21.65
2024-02-08T09:40:49.378Z,20.83
2024-02-08T09:43:16.577Z,17.15
2024-02-08T09:45:45.604Z,14.98
2024-02-08T09:48:17.987Z,17.73
2024-02-08T09:50:45.808Z,19.33
2024-02-08T09:53:12.705Z,23.27
2024-02-08T09:55:39.518Z,16.27
2024-02-08T09:58:07.106Z,20.80
2024-02-08T10:00:35.007Z,21.88
2024-02-08T10:03:07.802Z,24.77
2024-02-08T10:05:35.057Z,24.58
2024-02-08T10:08:01.863Z,24.13
2024-02-08T10:10:28.838Z,29.27
2024-02-08T10:12:56.801Z,27.88
2024-02-08T10:15:23.636Z,30.27
2024-02-08T10:17:50.450Z,34.75
2024-02-08T10:20:23.293Z,27.17
2024-02-08T10:22:51.340Z,33.35
2024-02-08T10:25:18.139Z,32.28
2024-02-08T10:27:45.025Z,29.80
2024-02-08T10:30:12.461Z,27.02
2024-02-08T10:32:39.354Z,28.58
2024-02-08T10:35:07.351Z,30.85
2024-02-08T10:37:34.259Z,25.48
2024-02-08T10:40:07.231Z,26.92
2024-02-08T10:42:34.072Z,26.92
2024-02-08T10:45:05.216Z,24.65
2024-02-08T10:47:40.583Z,25.05
2024-02-08T10:50:11.294Z,24.25
2024-02-08T10:52:38.816Z,27.05
2024-02-08T10:55:06.380Z,31.67
2024-02-08T10:57:33.360Z,25.00
2024-02-08T11:00:00.884Z,30.35
2024-02-08T11:02:30.036Z,27.50
2024-02-08T11:04:58.662Z,26.45
2024-02-08T11:07:25.737Z,26.55
2024-02-08T11:09:52.627Z,21.83
2024-02-08T11:12:28.240Z,25.00
2024-02-08T11:14:59.485Z,21.45
2024-02-08T11:17:29.826Z,18.90
2024-02-08T11:19:57.126Z,17.83
2024-02-08T11:22:29.119Z,19.38
2024-02-08T11:24:56.057Z,20.98
2024-02-08T11:27:25.980Z,22.30
2024-02-08T11:29:52.789Z,23.60
2024-02-08T11:32:19.606Z,20.63
2024-02-08T11:34:47.673Z,19.38
2024-02-08T11:37:18.271Z,15.68
2024-02-08T11:39:45.737Z,19.92
2024-02-08T11:42:15.211Z,21.92
2024-02-08T11:44:43.093Z,20.30
2024-02-08T11:47:19.954Z,22.42
2024-02-08T11:49:54.666Z,20.48
2024-02-08T11:52:22.018Z,22.83
2024-02-08T11:55:10.726Z,22.13
2024-02-08T11:57:39.027Z,21.20
2024-02-08T12:00:10.636Z,26.17
2024-02-08T12:02:39.451Z,21.13
2024-02-08T12:05:06.586Z,23.95
2024-02-08T12:07:33.575Z,24.42
2024-02-08T12:10:00.525Z,23.38
2024-02-08T12:12:27.386Z,25.30
2024-02-08T12:14:54.708Z,21.48
2024-02-08T12:17:24.512Z,21.63
2024-02-08T12:19:58.621Z,20.38
2024-02-08T12:24:58.829Z,18.75
2024-02-08T12:27:27.143Z,21.17
2024-02-08T12:29:54.420Z,18.48
2024-02-08T12:32:21.427Z,19.50
2024-02-08T12:34:49.572Z,15.82
2024-02-08T12:37:18.567Z,11.30
2024-02-08T12:39:46.826Z,20.02
2024-02-08T12:42:16.476Z,17.83
2024-02-08T12:44:44.533Z,15.80
2024-02-08T12:47:11.361Z,21.10
2024-02-08T12:49:38.326Z,18.85
2024-02-08T12:52:07.613Z,19.67
2024-02-08T12:54:34.431Z,24.02
2024-02-08T12:57:05.786Z,23.45
2024-02-08T12:59:32.617Z,17.23
2024-02-08T13:02:00.146Z,17.58
2024-02-08T13:04:27.095Z,14.80
2024-02-08T13:06:54.112Z,18.00
2024-02-08T13:09:23.790Z,19.77
2024-02-08T13:11:50.568Z,14.52
2024-02-08T13:14:20.461Z,12.02
2024-02-08T13:16:47.304Z,19.77
2024-02-08T13:19:18.819Z,17.17
2024-02-08T13:21:45.669Z,25.58
2024-02-08T13:24:12.525Z,20.55
2024-02-08T13:26:39.264Z,9.32
2024-02-08T13:29:06.018Z,17.65
2024-02-08T13:31:32.949Z,18.35
2024-02-08T13:33:59.873Z,18.00
2024-02-08T13:36:26.884Z,18.80
2024-02-08T13:38:53.746Z,11.90
2024-02-08T13:41:20.546Z,6.93
2024-02-08T13:43:47.648Z,15.43
2024-02-08T13:46:15.350Z,10.10
2024-02-08T13:48:43.028Z,13.02
2024-02-08T13:51:09.809Z,14.23
2024-02-08T13:53:36.655Z,16.73
2024-02-08T13:56:03.790Z,16.10
2024-02-08T13:58:30.715Z,12.77
2024-02-08T14:00:57.628Z,9.77
2024-02-08T14:03:25.732Z,13.82
2024-02-08T14:05:53.873Z,12.23
2024-02-08T14:08:21.274Z,15.20
2024-02-08T14:10:48.073Z,13.82
2024-02-08T14:13:16.038Z,12.30
2024-02-08T14:15:43.929Z,11.20
2024-02-08T14:18:10.772Z,12.07
2024-02-08T14:20:37.991Z,13.40
2024-02-08T14:23:04.861Z,14.20
2024-02-08T14:25:31.735Z,12.57
2024-02-08T14:27:58.576Z,14.35
2024-02-08T14:30:25.396Z,14.38
2024-02-08T14:32:52.202Z,16.75
2024-02-08T14:35:19.088Z,12.98
2024-02-08T14:37:45.977Z,16.35
2024-02-08T14:40:13.327Z,17.23
2024-02-08T14:42:40.132Z,16.77
2024-02-08T14:45:07.263Z,16.90
2024-02-08T14:47:34.062Z,13.95
2024-02-08T14:50:02.199Z,12.18
2024-02-08T14:52:31.079Z,16.75
2024-02-08T14:54:58.625Z,16.23
2024-02-08T14:57:28.636Z,18.98
2024-02-08T14:59:55.387Z,14.10
2024-02-08T15:02:22.302Z,16.75
2024-02-08T15:04:50.067Z,17.13
2024-02-08T15:07:18.407Z,16.55
2024-02-08T15:09:46.884Z,14.43
2024-02-08T15:12:13.672Z,17.17
2024-02-08T15:14:40.508Z,17.42
2024-02-08T15:17:08.168Z,19.63
2024-02-08T15:19:39.436Z,20.48
2024-02-08T15:22:06.377Z,19.45
2024-02-08T15:24:33.211Z,21.67
2024-02-08T15:27:00.181Z,24.13
2024-02-08T15:29:26.952Z,21.45
2024-02-08T15:31:55.608Z,22.83
2024-02-08T15:34:22.714Z,19.77
2024-02-08T15:36:50.377Z,20.55
2024-02-08T15:39:21.757Z,21.85
2024-02-08T15:41:49.065Z,22.13
2024-02-08T15:44:15.806Z,22.10
2024-02-08T15:46:42.637Z,23.55
2024-02-08T15:49:09.652Z,20.65
2024-02-08T15:51:36.473Z,22.92
2024-02-08T15:54:03.275Z,22.02
2024-02-08T15:56:31.386Z,21.45
2024-02-08T15:58:58.195Z,22.75
2024-02-08T16:01:25.057Z,23.83
2024-02-08T16:03:51.982Z,20.90
2024-02-08T16:06:18.777Z,24.42
2024-02-08T16:08:45.659Z,22.35
2024-02-08T16:11:12.450Z,21.35
2024-02-08T16:13:39.427Z,23.45
2024-02-08T16:16:06.377Z,26.15
2024-02-08T16:18:33.184Z,20.40
2024-02-08T16:20:59.957Z,23.17
2024-02-08T16:23:26.693Z,24.15
2024-02-08T16:25:56.891Z,24.27
2024-02-08T16:28:23.769Z,20.52
2024-02-08T16:30:52.211Z,22.38
2024-02-08T16:33:19.110Z,28.80
2024-02-08T16:35:47.011Z,28.02
2024-02-08T16:38:13.759Z,23.83
2024-02-08T16:40:40.600Z,27.20
2024-02-08T16:43:07.417Z,32.20
2024-02-08T16:45:43.653Z,24.45
2024-02-08T16:48:10.469Z,22.27
2024-02-08T16:50:37.281Z,26.65
2024-02-08T16:53:04.081Z,28.00
2024-02-08T16:55:30.958Z,25.63
2024-02-08T16:57:57.801Z,29.75
2024-02-08T17:00:24.606Z,28.25
2024-02-08T17:02:51.430Z,35.38
2024-02-08T17:05:18.641Z,34.92
2024-02-08T17:07:45.959Z,35.72
2024-02-08T17:10:14.456Z,32.58
2024-02-08T17:12:41.272Z,40.33
2024-02-08T17:15:08.176Z,37.58
2024-02-08T17:17:34.992Z,34.75
2024-02-08T17:20:03.209Z,37.72
2024-02-08T17:22:30.508Z,38.92
2024-02-08T17:24:57.921Z,37.55
2024-02-08T17:27:24.696Z,40.67
2024-02-08T17:29:51.535Z,35.22
2024-02-08T17:32:18.848Z,42.42
2024-02-08T17:34:45.705Z,39.45
2024-02-08T17:37:12.681Z,35.15
2024-02-08T17:39:39.487Z,42.17
2024-02-08T17:42:06.844Z,47.25
2024-02-08T17:44:33.568Z,40.88
2024-02-08T17:47:00.390Z,41.88
2024-02-08T17:49:27.270Z,37.63
2024-02-08T17:51:54.052Z,36.60
2024-02-08T17:54:20.826Z,40.50
2024-02-08T17:56:49.362Z,39.72
2024-02-08T17:59:16.122Z,38.20
2024-02-08T18:01:43.615Z,38.38
2024-02-08T18:04:10.509Z,34.97
2024-02-08T18:06:37.444Z,38.95
2024-02-08T18:09:04.242Z,36.22
2024-02-08T18:11:31.392Z,33.97
2024-02-08T18:13:58.299Z,38.67
2024-02-08T18:16:25.132Z,39.47
2024-02-08T18:18:52.028Z,35.92
2024-02-08T18:21:19.241Z,33.03
2024-02-08T18:23:46.265Z,36.08
2024-02-08T18:26:14.119Z,39.92
2024-02-08T18:28:41.047Z,34.10
2024-02-08T18:31:10.767Z,35.05
2024-02-08T18:33:38.994Z,35.97
2024-02-08T18:36:06.128Z,37.70
2024-02-08T18:38:32.971Z,39.83
2024-02-08T18:40:59.788Z,40.05
2024-02-08T18:43:26.561Z,34.83
2024-02-08T18:45:53.916Z,39.58
2024-02-08T18:48:20.768Z,39.72
2024-02-08T18:50:47.899Z,39.08
2024-02-08T18:53:14.672Z,39.05
2024-02-08T18:55:41.737Z,33.80
2024-02-08T18:58:12.240Z,42.00
2024-02-08T19:00:39.049Z,34.45
2024-02-08T19:03:06.026Z,36.03
2024-02-08T19:05:32.966Z,37.88
2024-02-08T19:07:59.782Z,35.00
2024-02-08T19:10:30.079Z,33.80
2024-02-08T19:12:57.502Z,38.50
2024-02-08T19:15:24.305Z,36.88
2024-02-08T19:17:57.138Z,39.83
2024-02-08T19:20:30.220Z,40.20
2024-02-08T19:22:57.046Z,40.10
2024-02-08T19:25:25.457Z,37.47
2024-02-08T19:27:52.311Z,35.17
2024-02-08T19:30:19.103Z,43.75
2024-02-08T19:32:45.933Z,35.92
2024-02-08T19:35:12.959Z,37.60
2024-02-08T19:37:40.000Z,40.92
2024-02-08T19:40:07.776Z,39.58
2024-02-08T19:42:34.528Z,76.55
2024-02-08T19:45:01.541Z,37.70
2024-02-08T19:47:29.828Z,36.53
2024-02-08T19:49:57.293Z,36.97
2024-02-08T19:52:24.113Z,37.28
2024-02-08T19:54:51.774Z,37.30
2024-02-08T19:57:18.851Z,39.17
2024-02-08T19:59:46.013Z,42.80
2024-02-08T20:02:13.281Z,41.78
2024-02-08T20:04:40.279Z,45.05
2024-02-08T20:07:07.235Z,48.03
2024-02-08T20:09:34.038Z,40.88
2024-02-08T20:12:00.823Z,39.08
2024-02-08T20:14:27.513Z,42.72
2024-02-08T20:16:54.310Z,48.50
2024-02-08T20:19:22.317Z,44.28
2024-02-08T20:21:50.014Z,47.63
2024-02-08T20:24:17.380Z,45.75
2024-02-08T20:26:44.193Z,48.90
2024-02-08T20:29:10.889Z,48.20
2024-02-08T20:31:37.648Z,46.35
2024-02-08T20:34:04.740Z,46.67
2024-02-08T20:36:31.643Z,45.03
2024-02-08T20:38:58.332Z,47.78
2024-02-08T20:41:25.441Z,40.92
2024-02-08T20:43:55.556Z,37.42
2024-02-08T20:46:23.448Z,40.70
2024-02-08T20:48:50.536Z,40.53
2024-02-08T20:51:17.417Z,40.40
2024-02-08T20:53:44.196Z,43.40
2024-02-08T20:56:10.949Z,38.60
2024-02-08T20:58:38.036Z,34.72
2024-02-08T21:01:04.902Z,40.67
2024-02-08T21:03:31.640Z,39.50
2024-02-08T21:05:58.339Z,39.70
2024-02-08T21:08:25.085Z,44.92
2024-02-08T21:10:51.849Z,38.90
2024-02-08T21:13:18.968Z,40.60
2024-02-08T21:15:46.671Z,50.08
2024-02-08T21:18:14.695Z,47.88
2024-02-08T21:20:44.364Z,45.95
2024-02-08T21:23:11.155Z,44.85
2024-02-08T21:25:38.318Z,47.17
2024-02-08T21:28:05.650Z,50.10
2024-02-08T21:30:32.629Z,43.38
2024-02-08T21:32:59.425Z,48.42
2024-02-08T21:35:26.374Z,46.78
2024-02-08T21:37:53.189Z,46.10
2024-02-08T21:40:20.092Z,40.08
2024-02-08T21:42:46.873Z,49.13
2024-02-08T21:45:13.971Z,48.00
2024-02-08T21:47:41.016Z,46.20
2024-02-08T21:50:08.595Z,46.15
2024-02-08T21:52:38.846Z,46.30
2024-02-08T21:55:06.026Z,46.30
2024-02-08T21:57:32.853Z,47.95
2024-02-08T21:59:59.610Z,50.72
2024-02-08T22:02:26.404Z,51.83
2024-02-08T22:04:53.322Z,51.15
2024-02-08T22:07:20.270Z,50.10
2024-02-08T22:09:47.092Z,50.88
2024-02-08T22:12:13.823Z,50.92
2024-02-08T22:14:40.544Z,52.60
2024-02-08T22:17:07.313Z,48.88
2024-02-08T22:19:34.137Z,50.55
2024-02-08T22:22:00.971Z,54.50
2024-02-08T22:24:27.729Z,53.53
2024-02-08T22:26:54.491Z,51.92
2024-02-08T22:29:24.403Z,50.60
2024-02-08T22:31:52.364Z,55.97
2024-02-08T22:34:19.738Z,61.17
2024-02-08T22:36:46.851Z,56.17
2024-02-08T22:39:13.623Z,52.22
2024-02-08T22:41:44.988Z,50.60
2024-02-08T22:44:15.331Z,52.15
2024-02-08T22:46:42.621Z,52.42
2024-02-08T22:49:09.433Z,52.90
2024-02-08T22:51:36.212Z,49.88
2024-02-08T22:54:03.545Z,49.22
2024-02-08T22:56:30.308Z,47.78
2024-02-08T22:58:57.055Z,48.67
2024-02-08T23:01:24.049Z,44.95
2024-02-08T23:03:50.908Z,51.25
2024-02-08T23:06:20.690Z,59.72
2024-02-08T23:08:47.443Z,41.67
2024-02-08T23:11:14.156Z,52.22
2024-02-08T23:13:40.883Z,52.22
2024-02-08T23:16:07.684Z,59.58
2024-02-08T23:18:35.516Z,51.65
2024-02-08T23:21:02.342Z,57.50
2024-02-08T23:23:29.310Z,54.50
2024-02-08T23:25:56.170Z,53.65
2024-02-08T23:28:22.906Z,56.65
2024-02-08T23:30:49.690Z,49.08
2024-02-08T23:33:16.582Z,53.45
2024-02-08T23:35:43.409Z,49.95
2024-02-08T23:38:10.121Z,45.92
2024-02-08T23:40:36.915Z,44.38
2024-02-08T23:43:03.711Z,51.55
2024-02-08T23:45:31.523Z,53.72
2024-02-08T23:47:58.650Z,52.25
2024-02-08T23:50:26.689Z,53.45
2024-02-08T23:52:55.058Z,53.17
2024-02-08T23:55:21.831Z,52.88
2024-02-08T23:57:48.623Z,55.28
